Home > Products > Valid Products > TAF

000
FTUS45 KBOI 081416 AAC
TAFTWF
TAF AMD
KTWF 081416Z 0814/0912 13006KT 6SM BR SCT003
      TEMPO 0814/0818 1SM BR OVC002
     FM081900 06005KT P6SM SCT008
     FM090500 13005KT 6SM BR OVC008=



000
FTUS45 KBOI 081414 AAB
TAFMYL
TAF AMD
KMYL 081414Z 0814/0912 00000KT P6SM VCFG SCT100
      TEMPO 0814/0818 1/2SM FZFG VV001
     FM082100 VRB03KT 5SM BR SCT005
     FM090900 00000KT 1/2SM FZFG VV001=



000
FTUS45 KBOI 081353 AAB
TAFTWF
TAF AMD
KTWF 081353Z 0814/0912 13006KT 1SM BR OVC002
     FM081900 06005KT P6SM SCT008
     FM090500 13005KT 6SM BR OVC008=



000
FTUS45 KBOI 081309 AAA
TAFBKE
TAF AMD
KBKE 081309Z 0813/0912 00000KT 6SM BR SCT002
      TEMPO 0813/0817 1/2SM FZFG VV002
     FM082100 VRB03KT 6SM BR SKC
     FM090200 VRB03KT 2SM BR SCT010=



000
FTUS45 KBOI 081308 AAA
TAFMYL
TAF AMD
KMYL 081308Z 0813/0912 00000KT P6SM VCFG SCT100
     FM081400 00000KT 1/2SM FZFG VV001
     FM082100 VRB03KT 5SM BR SCT005
     FM090900 00000KT 1/2SM FZFG VV001=



000
FTUS45 KBOI 081308 AAA
TAFMYL
TAF AMD
KMYL 081308Z 0813/0912 00000KT P6SM VCFG SCT100
     FM081400 00000KT 1/2SM FZFG VV001
     FM082100 VRB03KT 5SM BR SCT005
     FM090900 00000KT 1/2SM FZFG VV001=



000
FTUS45 KBOI 081308 AAA
TAFMYL
TAF AMD
KMYL 081308Z 0813/0912 00000KT P6SM VCFG SCT100
     FM081400 00000KT 1/2SM FZFG VV001
     FM082100 VRB03KT 5SM BR SCT005
     FM090900 00000KT 1/2SM FZFG VV001=



000
FTUS45 KBOI 081243 AAA
TAFTWF
TAF AMD
KTWF 081243Z 0813/0912 13006KT P6SM SCT010
     FM081900 06005KT P6SM SCT008
     FM090500 13005KT 6SM BR OVC008=



000
FTUS45 KBOI 081242 AAA
TAFJER
TAF AMD
KJER 081242Z 0813/0912 06012KT 1/2SM FZFG OVC002
     FM081900 05008KT 4SM BR OVC008=



000
FTUS45 KBOI 081122
TAFTWF
TAF
KTWF 081122Z 0812/0912 13006KT P6SM OVC007
     FM081900 06005KT P6SM SCT008
     FM090500 13005KT 6SM BR OVC008=



000
FTUS45 KBOI 081122
TAFBOI
TAF
KBOI 081122Z 0812/0912 13006KT P6SM SKC
     FM082100 28005KT P6SM SKC
     FM090700 VRB03KT 6SM BR SCT010=



000
FTUS45 KBOI 081122
TAFJER
TAF
KJER 081122Z 0812/0912 06012KT P6SM OVC008=



000
FTUS45 KBOI 081122
TAFMYL
TAF
KMYL 081122Z 0812/0912 00000KT 1/2SM FZFG VV001
     FM082100 VRB03KT 5SM BR SCT005
     FM090900 00000KT 1/2SM FZFG VV001=



000
FTUS45 KBOI 081122
TAFBNO
TAF
KBNO 081122Z 0812/0912 VRB05KT P6SM SKC=



000
FTUS45 KBOI 081122
TAFBKE
TAF
KBKE 081122Z 0812/0912 00000KT 1/2SM FZFG VV002
     FM082100 VRB03KT 6SM BR SKC
     FM090200 VRB03KT 2SM BR SCT010=



000
FTUS45 KBOI 080927 AAA
TAFBNO
TAF AMD
KBNO 080927Z 0809/0906 VRB06KT P6SM SKC
     FM081100 00000KT 3/4SM BR VV002
     FM082100 VRB03KT P6SM SKC=



000
FTUS45 KBOI 080926 AAA
TAFJER
TAF AMD
KJER 080926Z 0809/0906 06012KT P6SM OVC008
     FM082100 04008KT P6SM SKC=



000
FTUS45 KBOI 080803 AAA
TAFBKE
TAF AMD
KBKE 080803Z 0808/0906 00000KT 1/2SM FZFG VV002
     FM082100 VRB03KT 6SM BR SKC
     FM090200 VRB03KT 2SM BR SCT010=



000
FTUS45 KBOI 080803 AAA
TAFBKE
TAF AMD
KBKE 080803Z 0808/0906 00000KT 1/2SM FZFG VV002
     FM082100 VRB03KT 6SM BR SKC
     FM090200 VRB03KT 2SM BR SCT010=



000
FTUS45 KBOI 080607 AAA
TAFMYL
TAF AMD
KMYL 080607Z 0806/0906 00000KT 1/2SM FZFG VV001
     FM082100 VRB03KT 5SM BR SCT005=



000
FTUS45 KBOI 080520
TAFBKE
TAF
KBKE 080520Z 0806/0906 00000KT P6SM SKC
     FM080900 00000KT 1/2SM FZFG VV002
     FM082100 VRB03KT 6SM BR SKC
     FM090200 VRB03KT 2SM BR SCT010=



000
FTUS45 KBOI 080520
TAFTWF
TAF
KTWF 080520Z 0806/0906 20008KT P6SM SKC
     FM081900 VRB05KT P6SM SKC=



000
FTUS45 KBOI 080520
TAFJER
TAF
KJER 080520Z 0806/0906 VRB06KT P6SM OVC015
     FM082100 04008KT P6SM SKC=



000
FTUS45 KBOI 080520
TAFBNO
TAF
KBNO 080520Z 0806/0906 VRB06KT P6SM SKC
     FM080900 00000KT 2SM BR OVC005
     FM081100 00000KT 3/4SM BR VV002
     FM082100 VRB03KT P6SM SKC=



000
FTUS45 KBOI 080520
TAFMYL
TAF
KMYL 080520Z 0806/0906 VRB03KT 2SM BR FEW001
     FM080900 00000KT 1/2SM FZFG VV002
     FM082100 VRB03KT 5SM BR SCT005=



000
FTUS45 KBOI 080520
TAFBOI
TAF
KBOI 080520Z 0806/0906 VRB03KT P6SM SKC
     FM081200 VRB03KT 3/4SM BR OVC002
     FM082100 VRB05KT 6SM BR FEW010=



000
FTUS45 KBOI 080502 AAA
TAFBKE
TAF AMD
KBKE 080502Z 0805/0824 00000KT P6SM SKC
     FM080900 00000KT 1/2SM FZFG VV002
     FM082100 VRB03KT 6SM BR SKC=



000
FTUS45 KBOI 080502 AAA
TAFBKE
TAF AMD
KBKE 080502Z 0805/0824 00000KT P6SM SKC
     FM080900 00000KT 1/2SM FZFG VV002
     FM082100 VRB03KT 6SM BR SKC=



000
FTUS45 KBOI 080502 AAA
TAFBKE
TAF AMD
KBKE 080502Z 0805/0824 00000KT P6SM SKC
     FM080900 00000KT 1/2SM FZFG VV002
     FM082100 VRB03KT 6SM BR SKC=



000
FTUS45 KBOI 080447 AAA
TAFJER
TAF AMD
KJER 080447Z 0805/0824 VRB03KT P6SM OVC015
     FM081000 06005KT 1SM BR OVC004
     FM082100 07007KT 6SM BR FEW005=



000
FTUS45 KBOI 080211 AAA
TAFMYL
TAF AMD
KMYL 080211Z 0802/0824 00000KT 3/4SM BR SKC
     FM080600 00000KT 1/2SM FZFG VV001
     FM082100 VRB03KT 5SM BR SCT005=



000
FTUS45 KBOI 072337
TAFBOI
TAF
KBOI 072337Z 0800/0824 28006KT P6SM SCT250
     FM080600 VRB03KT 3SM BR SCT005
     FM081200 VRB03KT 3/4SM BR OVC002
     FM082100 27005KT 6SM BR FEW010=



000
FTUS45 KBOI 072337
TAFTWF
TAF
KTWF 072337Z 0800/0824 VRB05KT P6SM SKC
     FM080900 VRB03KT 2SM BR BKN008
     FM082100 08006KT 6SM BR FEW010=



000
FTUS45 KBOI 072337
TAFJER
TAF
KJER 072337Z 0800/0824 03006KT P6SM SKC
     FM080500 07005KT 3SM BR SKC
     FM081000 06005KT 1SM BR OVC004
     FM082100 07007KT 6SM BR FEW005=



000
FTUS45 KBOI 072337
TAFBKE
TAF
KBKE 072337Z 0800/0824 23005KT P6SM BKN150
     FM080500 00000KT 5SM BR SCT010
     FM080900 00000KT 1/2SM FZFG VV002
     FM082100 VRB03KT 6SM BR SKC=



000
FTUS45 KBOI 072337
TAFTWF
TAF
KTWF 072337Z 0800/0824 VRB05KT P6SM SKC
     FM080900 VRB03KT 2SM BR BKN008
     FM082100 08006KT 6SM BR FEW010=



000
FTUS45 KBOI 072337
TAFBOI
TAF
KBOI 072337Z 0800/0824 28006KT P6SM SCT250
     FM080600 VRB03KT 3SM BR SCT005
     FM081200 VRB03KT 3/4SM BR OVC002
     FM082100 27005KT 6SM BR FEW010=



000
FTUS45 KBOI 072337
TAFJER
TAF
KJER 072337Z 0800/0824 03006KT P6SM SKC
     FM080500 07005KT 3SM BR SKC
     FM081000 06005KT 1SM BR OVC004
     FM082100 07007KT 6SM BR FEW005=



000
FTUS45 KBOI 072337
TAFMYL
TAF
KMYL 072337Z 0800/0824 VRB03KT P6SM SKC
     FM080900 00000KT 1/2SM FZFG VV001
     FM082100 VRB03KT 5SM BR SCT005=



000
FTUS45 KBOI 072337
TAFBOI
TAF
KBOI 072337Z 0800/0824 28006KT P6SM SCT250
     FM080600 VRB03KT 3SM BR SCT005
     FM081200 VRB03KT 3/4SM BR OVC002
     FM082100 27005KT 6SM BR FEW010=



000
FTUS45 KBOI 072337
TAFMYL
TAF
KMYL 072337Z 0800/0824 VRB03KT P6SM SKC
     FM080900 00000KT 1/2SM FZFG VV001
     FM082100 VRB03KT 5SM BR SCT005=



000
FTUS45 KBOI 072337
TAFJER
TAF
KJER 072337Z 0800/0824 03006KT P6SM SKC
     FM080500 07005KT 3SM BR SKC
     FM081000 06005KT 1SM BR OVC004
     FM082100 07007KT 6SM BR FEW005=



000
FTUS45 KBOI 072337
TAFBNO
TAF
KBNO 072337Z 0800/0824 VRB03KT P6SM SKC
     FM080900 00000KT 2SM BR OVC005
     FM081100 00000KT 3/4SM BR VV002
     FM082100 VRB03KT P6SM SKC=



000
FTUS45 KBOI 072337
TAFBKE
TAF
KBKE 072337Z 0800/0824 23005KT P6SM BKN150
     FM080500 00000KT 5SM BR SCT010
     FM080900 00000KT 1/2SM FZFG VV002
     FM082100 VRB03KT 6SM BR SKC=



000
FTUS45 KBOI 072337
TAFTWF
TAF
KTWF 072337Z 0800/0824 VRB05KT P6SM SKC
     FM080900 VRB03KT 2SM BR BKN008
     FM082100 08006KT 6SM BR FEW010=



000
FTUS45 KBOI 072337
TAFBNO
TAF
KBNO 072337Z 0800/0824 VRB03KT P6SM SKC
     FM080900 00000KT 2SM BR OVC005
     FM081100 00000KT 3/4SM BR VV002
     FM082100 VRB03KT P6SM SKC=



000
FTUS45 KBOI 072337
TAFMYL
TAF
KMYL 072337Z 0800/0824 VRB03KT P6SM SKC
     FM080900 00000KT 1/2SM FZFG VV001
     FM082100 VRB03KT 5SM BR SCT005=



000
FTUS45 KBOI 072337
TAFBNO
TAF
KBNO 072337Z 0800/0824 VRB03KT P6SM SKC
     FM080900 00000KT 2SM BR OVC005
     FM081100 00000KT 3/4SM BR VV002
     FM082100 VRB03KT P6SM SKC=



000
FTUS45 KBOI 072337
TAFBKE
TAF
KBKE 072337Z 0800/0824 23005KT P6SM BKN150
     FM080500 00000KT 5SM BR SCT010
     FM080900 00000KT 1/2SM FZFG VV002
     FM082100 VRB03KT 6SM BR SKC=



000
FTUS45 KBOI 071720
TAFJER
TAF
KJER 071720Z 0718/0818 VRB05KT P6SM VCFG FEW002
      TEMPO 0718/0720 2SM BR
     FM072000 VRB05KT P6SM SKC
     FM080800 VRB05KT P6SM SCT008
      TEMPO 0808/0810 BKN008
     FM081000 VRB05KT 4SM BR OVC005
     FM081300 VRB05KT 3/4SM BR OVC004=



000
FTUS45 KBOI 071720
TAFBOI
TAF
KBOI 071720Z 0718/0818 VRB03KT P6SM FEW050
      TEMPO 0718/0720 5SM BR
     FM080400 VRB03KT 6SM BR SKC
     FM080600 VRB03KT 3SM BR SCT005
     FM081200 VRB03KT 3/4SM BR OVC002=



000
FTUS45 KBOI 071720
TAFBKE
TAF
KBKE 071720Z 0718/0818 VRB03KT 5SM BR FEW002
      TEMPO 0718/0719 3/4SM BR BKN002
     FM071900 VRB03KT P6SM SKC
     FM080800 00000KT 5SM BR SCT002
     FM081100 00000KT 1/2SM FZFG VV002=



000
FTUS45 KBOI 071720
TAFBNO
TAF
KBNO 071720Z 0718/0818 VRB03KT P6SM FEW200
     FM080900 VRB03KT P6SM VCFG FEW200
      TEMPO 0809/0811 2SM BR
     FM081100 VRB03KT 3/4SM BR VV002=



000
FTUS45 KBOI 071720
TAFTWF
TAF
KTWF 071720Z 0718/0818 23006KT P6SM SCT050
     FM080900 VRB06KT P6SM SCT008
      TEMPO 0809/0811 BKN008
     FM081100 VRB06KT P6SM OVC008=



000
FTUS45 KBOI 071720
TAFMYL
TAF
KMYL 071720Z 0718/0818 VRB03KT P6SM SKC
      TEMPO 0718/0719 1/2SM FZFG BKN001
     FM080900 00000KT 3SM BR SCT001
      TEMPO 0809/0811 1/2SM FZFG VV001
     FM081100 00000KT 1/2SM FZFG VV001=



000
FTUS45 KBOI 071518 AAA
TAFMYL
TAF AMD
KMYL 071518Z 0715/0812 VRB03KT P6SM SKC
     FM080900 00000KT 4SM BR SCT001
      TEMPO 0809/0811 1/2SM FZFG VV001
     FM081100 00000KT 1/2SM FZFG VV001=



000
FTUS45 KBOI 071516 AAA
TAFBNO
TAF AMD
KBNO 071516Z 0715/0812 00000KT P6SM FEW200
      TEMPO 0715/0717 3SM BR BKN002
     FM071700 VRB03KT P6SM SKC=



000
FTUS45 KBOI 071514 AAB
TAFJER
TAF AMD
KJER 071514Z 0715/0812 VRB05KT 1SM BR SCT002
     FM071900 VRB05KT P6SM SKC
     FM080200 06010KT P6SM SCT008=



000
FTUS45 KBOI 071510 AAB
TAFBOI
TAF AMD
KBOI 071510Z 0715/0812 VRB03KT 5SM BR SCT050
      TEMPO 0716/0717 P6SM NSW
     FM071700 VRB03KT P6SM SKC
     FM080500 00000KT 5SM BR SCT007=



000
FTUS45 KBOI 071510 AAB
TAFBOI
TAF AMD
KBOI 071510Z 0715/0812 VRB03KT 5SM BR SCT050
      TEMPO 0716/0717 P6SM NSW
     FM071700 VRB03KT P6SM SKC
     FM080500 00000KT 5SM BR SCT007=



000
FTUS45 KBOI 071510 AAB
TAFBOI
TAF AMD
KBOI 071510Z 0715/0812 VRB03KT 5SM BR SCT050
      TEMPO 0716/0717 P6SM NSW
     FM071700 VRB03KT P6SM SKC
     FM080500 00000KT 5SM BR SCT007=



000
FTUS45 KBOI 071506 AAA
TAFBKE
TAF AMD
KBKE 071506Z 0715/0812 00000KT 3/4SM BR VV002
      TEMPO 0719/0720 P6SM NSW
     FM072000 VRB03KT P6SM SKC
     FM080800 00000KT 5SM BR SCT002=



000
FTUS45 KBOI 071340 AAA
TAFJER
TAF AMD
KJER 071340Z 0714/0812 VRB05KT 1/4SM FZFG VV002
     FM071900 VRB05KT P6SM SKC
     FM080200 06010KT P6SM SCT008=



000
FTUS45 KBOI 071340 AAA
TAFJER
TAF AMD
KJER 071340Z 0714/0812 VRB05KT 1/4SM FZFG VV002
     FM071900 VRB05KT P6SM SKC
     FM080200 06010KT P6SM SCT008=



000
FTUS45 KBOI 071127
TAFJER
TAF
KJER 071127Z 0712/0812 22007KT P6SM SCT200
     FM071400 VRB05KT P6SM SKC
     FM080200 06010KT P6SM SCT008=



000
FTUS45 KBOI 071127
TAFTWF
TAF
KTWF 071127Z 0712/0812 19010KT P6SM SCT200
     FM071900 26009KT P6SM SKC
     FM080200 19010KT P6SM SKC=



000
FTUS45 KBOI 071127
TAFTWF
TAF
KTWF 071127Z 0712/0812 19010KT P6SM SCT200
     FM071900 26009KT P6SM SKC
     FM080200 19010KT P6SM SKC=



000
FTUS45 KBOI 071127
TAFJER
TAF
KJER 071127Z 0712/0812 22007KT P6SM SCT200
     FM071400 VRB05KT P6SM SKC
     FM080200 06010KT P6SM SCT008=



000
FTUS45 KBOI 071127
TAFMYL
TAF
KMYL 071127Z 0712/0812 00000KT 1/4SM FZFG VV001
     FM071900 VRB03KT P6SM SCT150
     FM080800 00000KT 1/4SM FZFG VV001=



000
FTUS45 KBOI 071127
TAFBKE
TAF
KBKE 071127Z 0712/0812 00000KT 3SM BR BKN002
     FM071900 VRB03KT P6SM SKC=



000
FTUS45 KBOI 071127
TAFBNO
TAF
KBNO 071127Z 0712/0812 00000KT 1/4SM FZFG OVC001
     FM071700 VRB03KT P6SM SKC=



000
FTUS45 KBOI 071127
TAFBOI
TAF
KBOI 071127Z 0712/0812 00000KT 5SM BR FEW100
      TEMPO 0713/0717 1SM BR SCT005
     FM072000 30005KT P6SM SKC
     FM080500 00000KT 5SM BR SCT007=



000
FTUS45 KBOI 071127
TAFBOI
TAF
KBOI 071127Z 0712/0812 00000KT 5SM BR FEW100
      TEMPO 0713/0717 1SM BR SCT005
     FM072000 30005KT P6SM SKC
     FM080500 00000KT 5SM BR SCT007=



000
FTUS45 KBOI 071127
TAFBKE
TAF
KBKE 071127Z 0712/0812 00000KT 3SM BR BKN002
     FM071900 VRB03KT P6SM SKC=



000
FTUS45 KBOI 071127
TAFMYL
TAF
KMYL 071127Z 0712/0812 00000KT 1/4SM FZFG VV001
     FM071900 VRB03KT P6SM SCT150
     FM080800 00000KT 1/4SM FZFG VV001=



000
FTUS45 KBOI 071127
TAFBNO
TAF
KBNO 071127Z 0712/0812 00000KT 1/4SM FZFG OVC001
     FM071700 VRB03KT P6SM SKC=



000
FTUS45 KBOI 071006 AAA
TAFBNO
TAF AMD
KBNO 071006Z 0710/0806 00000KT 1/4SM FZFG OVC001
     FM071700 VRB03KT P6SM SKC=



000
FTUS45 KBOI 071004 AAA
TAFMYL
TAF AMD
KMYL 071004Z 0710/0806 00000KT 1/4SM FZFG VV001
     FM071700 VRB03KT P6SM FEW030 BKN200=



000
FTUS45 KBOI 071004 AAA
TAFMYL
TAF AMD
KMYL 071004Z 0710/0806 00000KT 1/4SM FZFG VV001
     FM071700 VRB03KT P6SM FEW030 BKN200=



000
FTUS45 KBOI 070901 AAA
TAFBKE
TAF AMD
KBKE 070901Z 0709/0806 00000KT 3SM BR BKN002
     FM071900 VRB03KT P6SM SKC=



000
FTUS45 KBOI 070820 AAB
TAFBOI
TAF AMD
KBOI 070820Z 0708/0806 00000KT 5SM BR SKC
     FM071100 00000KT 1SM BR SCT005
     FM072000 30005KT P6SM SKC=



000
FTUS45 KBOI 070554 AAA
TAFBOI
TAF AMD
KBOI 070554Z 0706/0806 00000KT 5SM BR SKC
     FM070900 00000KT 1SM BR SCT005
     FM072000 30005KT P6SM SKC=



000
FTUS45 KBOI 070554 AAA
TAFBOI
TAF AMD
KBOI 070554Z 0706/0806 00000KT 5SM BR SKC
     FM070900 00000KT 1SM BR SCT005
     FM072000 30005KT P6SM SKC=



000
FTUS45 KBOI 070554 AAA
TAFBOI
TAF AMD
KBOI 070554Z 0706/0806 00000KT 5SM BR SKC
     FM070900 00000KT 1SM BR SCT005
     FM072000 30005KT P6SM SKC=



000
FTUS45 KBOI 070520
TAFTWF
TAF
KTWF 070520Z 0706/0806 19010KT P6SM SCT200
     FM071900 VRB05KT P6SM SKC=



000
FTUS45 KBOI 070520
TAFBNO
TAF
KBNO 070520Z 0706/0806 VRB03KT P6SM SKC=



000
FTUS45 KBOI 070520
TAFJER
TAF
KJER 070520Z 0706/0806 22007KT P6SM SCT200
     FM071400 VRB05KT P6SM SKC=



000
FTUS45 KBOI 070520
TAFBOI
TAF
KBOI 070520Z 0706/0806 VRB03KT P6SM SCT200
     FM070900 00000KT P6SM VCFG SKC
     FM072000 30005KT P6SM SKC=



000
FTUS45 KBOI 070520
TAFBKE
TAF
KBKE 070520Z 0706/0806 VRB03KT 6SM BR SCT200
     FM070800 00000KT 3SM BR SCT010
     FM071900 VRB03KT P6SM SKC=



000
FTUS45 KBOI 070520
TAFMYL
TAF
KMYL 070520Z 0706/0806 VRB03KT P6SM OVC090
     FM071000 00000KT 3SM BR BKN025
     FM071700 VRB03KT P6SM FEW030 BKN200=



000
FTUS45 KBOI 062320
TAFMYL
TAF
KMYL 062320Z 0700/0724 VRB03KT P6SM BKN100
     FM070900 00000KT 3SM BR BKN025
     FM071400 VRB03KT P6SM FEW030 BKN120=



000
FTUS45 KBOI 062320
TAFBOI
TAF
KBOI 062320Z 0700/0724 30008KT P6SM BKN060
     FM070900 VRB03KT P6SM VCFG BKN200
     FM072000 30006KT P6SM SKC=



000
FTUS45 KBOI 062320
TAFBOI
TAF
KBOI 062320Z 0700/0724 30008KT P6SM BKN060
     FM070900 VRB03KT P6SM VCFG BKN200
     FM072000 30006KT P6SM SKC=



000
FTUS45 KBOI 062320
TAFBNO
TAF
KBNO 062320Z 0700/0724 VRB03KT P6SM BKN120=



000
FTUS45 KBOI 062320
TAFBKE
TAF
KBKE 062320Z 0700/0724 VRB03KT P6SM BKN120=



000
FTUS45 KBOI 062320
TAFTWF
TAF
KTWF 062320Z 0700/0724 19010KT P6SM SCT200
     FM071900 26010KT P6SM SKC=



000
FTUS45 KBOI 062320
TAFJER
TAF
KJER 062320Z 0700/0724 VRB06KT P6SM BKN200=



000
FTUS45 KBOI 062320
TAFMYL
TAF
KMYL 062320Z 0700/0724 VRB03KT P6SM BKN100
     FM070900 00000KT 3SM BR BKN025
     FM071400 VRB03KT P6SM FEW030 BKN120=



000
FTUS45 KBOI 062320
TAFBNO
TAF
KBNO 062320Z 0700/0724 VRB03KT P6SM BKN120=



000
FTUS45 KBOI 062320
TAFBKE
TAF
KBKE 062320Z 0700/0724 VRB03KT P6SM BKN120=



000
FTUS45 KBOI 062320
TAFTWF
TAF
KTWF 062320Z 0700/0724 19010KT P6SM SCT200
     FM071900 26010KT P6SM SKC=



000
FTUS45 KBOI 062320
TAFBOI
TAF
KBOI 062320Z 0700/0724 30008KT P6SM BKN060
     FM070900 VRB03KT P6SM VCFG BKN200
     FM072000 30006KT P6SM SKC=



000
FTUS45 KBOI 062320
TAFJER
TAF
KJER 062320Z 0700/0724 VRB06KT P6SM BKN200=



000
FTUS45 KBOI 061720
TAFBOI
TAF
KBOI 061720Z 0618/0718 14006KT P6SM OVC060
     FM070900 VRB03KT P6SM VCFG SCT060 BKN200=



000
FTUS45 KBOI 061720
TAFJER
TAF
KJER 061720Z 0618/0718 03013KT P6SM OVC060
     FM062100 VRB06KT P6SM OVC060
     FM070300 21008KT P6SM BKN060=



000
FTUS45 KBOI 061720
TAFBKE
TAF
KBKE 061720Z 0618/0718 VRB03KT P6SM SCT060 OVC150
     FM070900 VRB03KT P6SM VCFG BKN100=



000
FTUS45 KBOI 061720
TAFMYL
TAF
KMYL 061720Z 0618/0718 VRB03KT P6SM BKN060
     FM070600 VRB03KT P6SM VCFG BKN100
     FM071400 00000KT 6SM BR FEW010 BKN100=



000
FTUS45 KBOI 061720
TAFBNO
TAF
KBNO 061720Z 0618/0718 VRB03KT P6SM SCT050 BKN120
     FM070300 VRB03KT P6SM VCFG BKN100=



000
FTUS45 KBOI 061720
TAFTWF
TAF
KTWF 061720Z 0618/0718 VRB05KT P6SM OVC060
     FM070300 22008KT P6SM BKN060=



000
FTUS45 KBOI 061126
TAFTWF
TAF
KTWF 061126Z 0612/0712 VRB05KT P6SM BKN200
     FM062100 25008KT P6SM SCT120
     FM070200 22007KT P6SM SKC=



000
FTUS45 KBOI 061126
TAFBNO
TAF
KBNO 061126Z 0612/0712 VRB03KT P6SM SCT150=



000
FTUS45 KBOI 061126
TAFMYL
TAF
KMYL 061126Z 0612/0712 VRB03KT P6SM VCSH BKN040 OVC060
      TEMPO 0612/0613 2SM -SHSN OVC015
     FM061800 VRB03KT P6SM BKN050
     FM070000 15007KT P6SM SKC=



000
FTUS45 KBOI 061126
TAFMYL
TAF
KMYL 061126Z 0612/0712 VRB03KT P6SM VCSH BKN040 OVC060
      TEMPO 0612/0613 2SM -SHSN OVC015
     FM061800 VRB03KT P6SM BKN050
     FM070000 15007KT P6SM SKC=



000
FTUS45 KBOI 061126
TAFBKE
TAF
KBKE 061126Z 0612/0712 11010KT P6SM OVC070
     FM061600 VRB05KT P6SM SCT100=



000
FTUS45 KBOI 061126
TAFBKE
TAF
KBKE 061126Z 0612/0712 11010KT P6SM OVC070
     FM061600 VRB05KT P6SM SCT100=



000
FTUS45 KBOI 061126
TAFBNO
TAF
KBNO 061126Z 0612/0712 VRB03KT P6SM SCT150=



000
FTUS45 KBOI 061126
TAFBOI
TAF
KBOI 061126Z 0612/0712 14008KT P6SM SCT100 BKN200
     FM062000 30007KT P6SM SCT080
     FM070100 VRB03KT P6SM SKC=



000
FTUS45 KBOI 061126
TAFJER
TAF
KJER 061126Z 0612/0712 03018KT P6SM SCT003 BKN200
     FM062200 27010KT P6SM BKN120
     FM070300 21008KT P6SM SKC=



000
FTUS45 KBOI 061126
TAFTWF
TAF
KTWF 061126Z 0612/0712 VRB05KT P6SM BKN200
     FM062100 25008KT P6SM SCT120
     FM070200 22007KT P6SM SKC=



000
FTUS45 KBOI 061126
TAFMYL
TAF
KMYL 061126Z 0612/0712 VRB03KT P6SM VCSH BKN040 OVC060
      TEMPO 0612/0613 2SM -SHSN OVC015
     FM061800 VRB03KT P6SM BKN050
     FM070000 15007KT P6SM SKC=



000
FTUS45 KBOI 061126
TAFJER
TAF
KJER 061126Z 0612/0712 03018KT P6SM SCT003 BKN200
     FM062200 27010KT P6SM BKN120
     FM070300 21008KT P6SM SKC=



000
FTUS45 KBOI 061126
TAFBNO
TAF
KBNO 061126Z 0612/0712 VRB03KT P6SM SCT150=



000
FTUS45 KBOI 061126
TAFTWF
TAF
KTWF 061126Z 0612/0712 VRB05KT P6SM BKN200
     FM062100 25008KT P6SM SCT120
     FM070200 22007KT P6SM SKC=



000
FTUS45 KBOI 061126
TAFBOI
TAF
KBOI 061126Z 0612/0712 14008KT P6SM SCT100 BKN200
     FM062000 30007KT P6SM SCT080
     FM070100 VRB03KT P6SM SKC=



000
FTUS45 KBOI 061126
TAFBKE
TAF
KBKE 061126Z 0612/0712 11010KT P6SM OVC070
     FM061600 VRB05KT P6SM SCT100=



000
FTUS45 KBOI 061126
TAFJER
TAF
KJER 061126Z 0612/0712 03018KT P6SM SCT003 BKN200
     FM062200 27010KT P6SM BKN120
     FM070300 21008KT P6SM SKC=



000
FTUS45 KBOI 061126
TAFBOI
TAF
KBOI 061126Z 0612/0712 14008KT P6SM SCT100 BKN200
     FM062000 30007KT P6SM SCT080
     FM070100 VRB03KT P6SM SKC=



000
FTUS45 KBOI 060906 AAD
TAFMYL
TAF AMD
KMYL 060906Z 0609/0706 VRB03KT P6SM VCSH BKN040 OVC060
      TEMPO 0609/0613 2SM -SHSN OVC015
     FM061800 VRB03KT P6SM BKN035
     FM070000 15007KT P6SM SKC=



000
FTUS45 KBOI 060906 AAD
TAFMYL
TAF AMD
KMYL 060906Z 0609/0706 VRB03KT P6SM VCSH BKN040 OVC060
      TEMPO 0609/0613 2SM -SHSN OVC015
     FM061800 VRB03KT P6SM BKN035
     FM070000 15007KT P6SM SKC=



000
FTUS45 KBOI 060801 AAA
TAFJER
TAF AMD
KJER 060801Z 0608/0706 03018KT P6SM SCT003
     FM062200 27010KT P6SM BKN120
     FM070300 21008KT P6SM SKC=



000
FTUS45 KBOI 060801 AAA
TAFJER
TAF AMD
KJER 060801Z 0608/0706 03018KT P6SM SCT003
     FM062200 27010KT P6SM BKN120
     FM070300 21008KT P6SM SKC=



000
FTUS45 KBOI 060801 AAA
TAFJER
TAF AMD
KJER 060801Z 0608/0706 03018KT P6SM SCT003
     FM062200 27010KT P6SM BKN120
     FM070300 21008KT P6SM SKC=



000
FTUS45 KBOI 060800 AAC
TAFMYL
TAF AMD
KMYL 060800Z 0608/0706 VRB03KT 6SM BR VCSH BKN100
     FM060900 VRB03KT 2SM -SHSN OVC015
     FM061800 VRB03KT P6SM BKN035
     FM070000 15007KT P6SM SKC=



000
FTUS45 KBOI 060800 AAC
TAFMYL
TAF AMD
KMYL 060800Z 0608/0706 VRB03KT 6SM BR VCSH BKN100
     FM060900 VRB03KT 2SM -SHSN OVC015
     FM061800 VRB03KT P6SM BKN035
     FM070000 15007KT P6SM SKC=



000
FTUS45 KBOI 060730 AAB
TAFMYL
TAF AMD
KMYL 060730Z 0608/0706 VRB03KT 1/4SM FZFG OVC001
     FM060900 VRB03KT 2SM -SHSN OVC015
     FM061800 VRB03KT P6SM BKN035
     FM070000 15007KT P6SM SKC=



000
FTUS45 KBOI 060730 AAB
TAFMYL
TAF AMD
KMYL 060730Z 0608/0706 VRB03KT 1/4SM FZFG OVC001
     FM060900 VRB03KT 2SM -SHSN OVC015
     FM061800 VRB03KT P6SM BKN035
     FM070000 15007KT P6SM SKC=



000
FTUS45 KBOI 060620 AAA
TAFMYL
TAF AMD
KMYL 060620Z 0606/0706 VRB03KT P6SM VCFG OVC035
     FM060900 VRB03KT 2SM -SHSN OVC015
     FM061800 VRB03KT P6SM BKN035
     FM070000 15007KT P6SM SKC=



000
FTUS45 KBOI 060520
TAFBOI
TAF
KBOI 060520Z 0606/0706 14010KT P6SM BKN200
     FM062000 30007KT P6SM SCT080
     FM070100 VRB03KT P6SM SKC=



000
FTUS45 KBOI 060520
TAFBKE
TAF
KBKE 060520Z 0606/0706 09013KT P6SM BKN120
     FM061000 11010KT P6SM VCSH BKN070
     FM061600 VRB05KT P6SM SCT100=



000
FTUS45 KBOI 060520
TAFJER
TAF
KJER 060520Z 0606/0706 03018KT 2SM BR BKN002
     FM062200 27010KT P6SM BKN120
     FM070300 21008KT P6SM SKC=



000
FTUS45 KBOI 060520
TAFMYL
TAF
KMYL 060520Z 0606/0706 VRB03KT 5SM BR SCT035 BKN100
     FM060900 VRB03KT 2SM -SHSN OVC015
     FM061800 VRB03KT P6SM BKN035
     FM070000 15007KT P6SM SKC=



000
FTUS45 KBOI 060520
TAFTWF
TAF
KTWF 060520Z 0606/0706 VRB05KT P6SM BKN200
     FM062100 25008KT P6SM SCT120
     FM070200 22007KT P6SM SKC=



000
FTUS45 KBOI 060520
TAFBNO
TAF
KBNO 060520Z 0606/0706 VRB03KT P6SM SCT150=



000
FTUS45 KBOI 060456 AAA
TAFMYL
TAF AMD
KMYL 060456Z 0605/0624 00000KT 2SM BR FEW100 BKN200
     FM060900 VRB03KT 2SM -SHSN OVC015
     FM061800 VRB03KT P6SM FEW015 BKN030=



000
FTUS45 KBOI 060158 AAA
TAFBKE
TAF AMD
KBKE 060158Z 0602/0624 10014KT P6SM FEW120 BKN200
     FM060400 12012KT P6SM VCSH OVC070
     FM061500 34007KT P6SM SCT100=



000
FTUS45 KBOI 060158 AAA
TAFBKE
TAF AMD
KBKE 060158Z 0602/0624 10014KT P6SM FEW120 BKN200
     FM060400 12012KT P6SM VCSH OVC070
     FM061500 34007KT P6SM SCT100=



000
FTUS45 KBOI 060158 AAA
TAFBKE
TAF AMD
KBKE 060158Z 0602/0624 10014KT P6SM FEW120 BKN200
     FM060400 12012KT P6SM VCSH OVC070
     FM061500 34007KT P6SM SCT100=



000
FTUS45 KBOI 052333 AAA
TAFJER
TAF AMD
KJER 052333Z 0600/0624 04014KT 2SM BR BKN002
      TEMPO 0600/0602 6SM BR SCT002
     FM060900 05010KT P6SM BKN015
     FM062000 27010KT P6SM BKN100=



000
FTUS45 KBOI 052333 AAA
TAFJER
TAF AMD
KJER 052333Z 0600/0624 04014KT 2SM BR BKN002
      TEMPO 0600/0602 6SM BR SCT002
     FM060900 05010KT P6SM BKN015
     FM062000 27010KT P6SM BKN100=



000
FTUS45 KBOI 052333 AAA
TAFJER
TAF AMD
KJER 052333Z 0600/0624 04014KT 2SM BR BKN002
      TEMPO 0600/0602 6SM BR SCT002
     FM060900 05010KT P6SM BKN015
     FM062000 27010KT P6SM BKN100=



000
FTUS45 KBOI 052321
TAFJER
TAF
KJER 052321Z 0600/0624 05012KT P6SM FEW002
     FM060900 05010KT P6SM BKN015
     FM062000 27010KT P6SM BKN100=



000
FTUS45 KBOI 052321
TAFTWF
TAF
KTWF 052321Z 0600/0624 VRB05KT P6SM SKC
     FM060500 15007KT P6SM SCT030 BKN200
     FM061000 19010KT P6SM BKN200
     FM062000 27010KT P6SM SCT120=



000
FTUS45 KBOI 052321
TAFBNO
TAF
KBNO 052321Z 0600/0624 VRB03KT P6SM FEW120
     FM060600 VRB03KT P6SM VCFG BKN100
     FM061300 25007KT P6SM SCT070=



000
FTUS45 KBOI 052321
TAFBOI
TAF
KBOI 052321Z 0600/0624 18010KT P6SM SCT200
     FM060600 13007KT P6SM OVC150
     FM062000 31006KT P6SM SCT080=



000
FTUS45 KBOI 052321
TAFMYL
TAF
KMYL 052321Z 0600/0624 VRB03KT P6SM BKN035
     FM060900 VRB03KT 2SM -SHSN OVC015
     FM061800 VRB03KT P6SM FEW015 BKN030=



000
FTUS45 KBOI 052321
TAFMYL
TAF
KMYL 052321Z 0600/0624 VRB03KT P6SM BKN035
     FM060900 VRB03KT 2SM -SHSN OVC015
     FM061800 VRB03KT P6SM FEW015 BKN030=



000
FTUS45 KBOI 052321
TAFJER
TAF
KJER 052321Z 0600/0624 05012KT P6SM FEW002
     FM060900 05010KT P6SM BKN015
     FM062000 27010KT P6SM BKN100=



000
FTUS45 KBOI 052321
TAFMYL
TAF
KMYL 052321Z 0600/0624 VRB03KT P6SM BKN035
     FM060900 VRB03KT 2SM -SHSN OVC015
     FM061800 VRB03KT P6SM FEW015 BKN030=



000
FTUS45 KBOI 052321
TAFBNO
TAF
KBNO 052321Z 0600/0624 VRB03KT P6SM FEW120
     FM060600 VRB03KT P6SM VCFG BKN100
     FM061300 25007KT P6SM SCT070=



000
FTUS45 KBOI 052321
TAFTWF
TAF
KTWF 052321Z 0600/0624 VRB05KT P6SM SKC
     FM060500 15007KT P6SM SCT030 BKN200
     FM061000 19010KT P6SM BKN200
     FM062000 27010KT P6SM SCT120=



000
FTUS45 KBOI 052321
TAFBKE
TAF
KBKE 052321Z 0600/0624 09015G25KT P6SM BKN120
     FM060400 12012KT P6SM VCSH OVC070
     FM061500 34007KT P6SM SCT100=



000
FTUS45 KBOI 052321
TAFBKE
TAF
KBKE 052321Z 0600/0624 09015G25KT P6SM BKN120
     FM060400 12012KT P6SM VCSH OVC070
     FM061500 34007KT P6SM SCT100=



000
FTUS45 KBOI 052321
TAFBNO
TAF
KBNO 052321Z 0600/0624 VRB03KT P6SM FEW120
     FM060600 VRB03KT P6SM VCFG BKN100
     FM061300 25007KT P6SM SCT070=



000
FTUS45 KBOI 052321
TAFTWF
TAF
KTWF 052321Z 0600/0624 VRB05KT P6SM SKC
     FM060500 15007KT P6SM SCT030 BKN200
     FM061000 19010KT P6SM BKN200
     FM062000 27010KT P6SM SCT120=



000
FTUS45 KBOI 052321
TAFBOI
TAF
KBOI 052321Z 0600/0624 18010KT P6SM SCT200
     FM060600 13007KT P6SM OVC150
     FM062000 31006KT P6SM SCT080=



000
FTUS45 KBOI 052321
TAFJER
TAF
KJER 052321Z 0600/0624 05012KT P6SM FEW002
     FM060900 05010KT P6SM BKN015
     FM062000 27010KT P6SM BKN100=



000
FTUS45 KBOI 052321
TAFBOI
TAF
KBOI 052321Z 0600/0624 18010KT P6SM SCT200
     FM060600 13007KT P6SM OVC150
     FM062000 31006KT P6SM SCT080=



000
FTUS45 KBOI 052321
TAFBKE
TAF
KBKE 052321Z 0600/0624 09015G25KT P6SM BKN120
     FM060400 12012KT P6SM VCSH OVC070
     FM061500 34007KT P6SM SCT100=



000
FTUS45 KBOI 052106 AAA
TAFMYL
TAF AMD
KMYL 052106Z 0521/0618 VRB03KT P6SM BKN035
     FM060900 VRB03KT 2SM -SHSN OVC015=



000
FTUS45 KBOI 052022 AAB
TAFBKE
TAF AMD
KBKE 052022Z 0520/0618 11015KT P6SM FEW010 BKN250
     FM060600 13012KT P6SM VCSH OVC040=



000
FTUS45 KBOI 052022 AAB
TAFBKE
TAF AMD
KBKE 052022Z 0520/0618 11015KT P6SM FEW010 BKN250
     FM060600 13012KT P6SM VCSH OVC040=



000
FTUS45 KBOI 051909 AAA
TAFBKE
TAF AMD
KBKE 051909Z 0519/0618 VRB05KT P6SM FEW010 BKN250
     FM060600 13012KT P6SM VCSH OVC040=



000
FTUS45 KBOI 051909 AAA
TAFBKE
TAF AMD
KBKE 051909Z 0519/0618 VRB05KT P6SM FEW010 BKN250
     FM060600 13012KT P6SM VCSH OVC040=



000
FTUS45 KBOI 051909 AAA
TAFBKE
TAF AMD
KBKE 051909Z 0519/0618 VRB05KT P6SM FEW010 BKN250
     FM060600 13012KT P6SM VCSH OVC040=



000
FTUS45 KBOI 051907 AAA
TAFBOI
TAF AMD
KBOI 051907Z 0519/0618 VRB03KT P6SM FEW002 SCT250
      TEMPO 0519/0520 2SM BR
     FM060600 14006KT P6SM VCFG OVC150
     FM061200 14006KT 5SM BR OVC100=



000
FTUS45 KBOI 051720
TAFMYL
TAF
KMYL 051720Z 0518/0618 VRB03KT P6SM VCFG OVC006
     FM052000 VRB03KT P6SM SCT002 OVC020
     FM060900 VRB03KT 2SM -SHSN OVC015=



000
FTUS45 KBOI 051720
TAFBNO
TAF
KBNO 051720Z 0518/0618 VRB03KT P6SM SCT200
      TEMPO 0518/0519 2SM BR BKN001
     FM060600 VRB03KT P6SM VCFG BKN100=



000
FTUS45 KBOI 051720
TAFMYL
TAF
KMYL 051720Z 0518/0618 VRB03KT P6SM VCFG OVC006
     FM052000 VRB03KT P6SM SCT002 OVC020
     FM060900 VRB03KT 2SM -SHSN OVC015=



000
FTUS45 KBOI 051720
TAFBOI
TAF
KBOI 051720Z 0518/0618 VRB03KT 1/4SM FZFG VV001
      TEMPO 0518/0520 2SM BR SCT002 SCT250
     FM052000 VRB03KT P6SM FEW050 BKN200
     FM060600 14006KT P6SM VCFG OVC150
     FM061200 14006KT 5SM BR OVC100=



000
FTUS45 KBOI 051720
TAFTWF
TAF
KTWF 051720Z 0518/0618 VRB06KT P6SM FEW025 SCT045
     FM060500 16007KT P6SM SCT030 OVC200
     FM061500 21009KT P6SM OVC200=



000
FTUS45 KBOI 051720
TAFBKE
TAF
KBKE 051720Z 0518/0618 VRB03KT 6SM BR OVC006
     FM052000 11010KT P6SM FEW008 BKN200
     FM060600 13012KT P6SM VCSH OVC040=



000
FTUS45 KBOI 051720
TAFBNO
TAF
KBNO 051720Z 0518/0618 VRB03KT P6SM SCT200
      TEMPO 0518/0519 2SM BR BKN001
     FM060600 VRB03KT P6SM VCFG BKN100=



000
FTUS45 KBOI 051720
TAFMYL
TAF
KMYL 051720Z 0518/0618 VRB03KT P6SM VCFG OVC006
     FM052000 VRB03KT P6SM SCT002 OVC020
     FM060900 VRB03KT 2SM -SHSN OVC015=



000
FTUS45 KBOI 051720
TAFBOI
TAF
KBOI 051720Z 0518/0618 VRB03KT 1/4SM FZFG VV001
      TEMPO 0518/0520 2SM BR SCT002 SCT250
     FM052000 VRB03KT P6SM FEW050 BKN200
     FM060600 14006KT P6SM VCFG OVC150
     FM061200 14006KT 5SM BR OVC100=



000
FTUS45 KBOI 051720
TAFJER
TAF
KJER 051720Z 0518/0618 04009KT P6SM OVC008
     FM052200 05008KT P6SM SCT010 SCT250
     FM060900 05012KT P6SM BKN015=



000
FTUS45 KBOI 051720
TAFBNO
TAF
KBNO 051720Z 0518/0618 VRB03KT P6SM SCT200
      TEMPO 0518/0519 2SM BR BKN001
     FM060600 VRB03KT P6SM VCFG BKN100=



000
FTUS45 KBOI 051720
TAFBKE
TAF
KBKE 051720Z 0518/0618 VRB03KT 6SM BR OVC006
     FM052000 11010KT P6SM FEW008 BKN200
     FM060600 13012KT P6SM VCSH OVC040=



000
FTUS45 KBOI 051720
TAFBOI
TAF
KBOI 051720Z 0518/0618 VRB03KT 1/4SM FZFG VV001
      TEMPO 0518/0520 2SM BR SCT002 SCT250
     FM052000 VRB03KT P6SM FEW050 BKN200
     FM060600 14006KT P6SM VCFG OVC150
     FM061200 14006KT 5SM BR OVC100=



000
FTUS45 KBOI 051720
TAFTWF
TAF
KTWF 051720Z 0518/0618 VRB06KT P6SM FEW025 SCT045
     FM060500 16007KT P6SM SCT030 OVC200
     FM061500 21009KT P6SM OVC200=



000
FTUS45 KBOI 051720
TAFJER
TAF
KJER 051720Z 0518/0618 04009KT P6SM OVC008
     FM052200 05008KT P6SM SCT010 SCT250
     FM060900 05012KT P6SM BKN015=



000
FTUS45 KBOI 051720
TAFBKE
TAF
KBKE 051720Z 0518/0618 VRB03KT 6SM BR OVC006
     FM052000 11010KT P6SM FEW008 BKN200
     FM060600 13012KT P6SM VCSH OVC040=



000
FTUS45 KBOI 051720
TAFJER
TAF
KJER 051720Z 0518/0618 04009KT P6SM OVC008
     FM052200 05008KT P6SM SCT010 SCT250
     FM060900 05012KT P6SM BKN015=



000
FTUS45 KBOI 051515 AAA
TAFMYL
TAF AMD
KMYL 051515Z 0515/0612 VRB03KT P6SM VCFG OVC006
      TEMPO 0515/0517 2SM BR
     FM051900 VRB03KT P6SM SCT002 OVC020
     FM060900 VRB03KT 2SM -SHSN OVC015=



000
FTUS45 KBOI 051511 AAB
TAFTWF
TAF AMD
KTWF 051511Z 0515/0612 20011KT P6SM OVC020
     FM051700 21006KT P6SM BKN060=



000
FTUS45 KBOI 051505 AAB
TAFBOI
TAF AMD
KBOI 051505Z 0515/0612 VRB03KT 1/4SM FZFG VV001
      TEMPO 0516/0517 2SM BR SCT002
     FM051700 VRB03KT 2SM BR SCT002
      TEMPO 0517/0518 P6SM NSW
     FM051800 14006KT P6SM SCT050 BKN200=



000
FTUS45 KBOI 051505 AAB
TAFBOI
TAF AMD
KBOI 051505Z 0515/0612 VRB03KT 1/4SM FZFG VV001
      TEMPO 0516/0517 2SM BR SCT002
     FM051700 VRB03KT 2SM BR SCT002
      TEMPO 0517/0518 P6SM NSW
     FM051800 14006KT P6SM SCT050 BKN200=



000
FTUS45 KBOI 051505 AAB
TAFBOI
TAF AMD
KBOI 051505Z 0515/0612 VRB03KT 1/4SM FZFG VV001
      TEMPO 0516/0517 2SM BR SCT002
     FM051700 VRB03KT 2SM BR SCT002
      TEMPO 0517/0518 P6SM NSW
     FM051800 14006KT P6SM SCT050 BKN200=



    US Dept of Commerce
    National Oceanic and Atmospheric Administration
    National Weather Service
    1325 East West Highway
    Silver Spring, MD 20910
    Page Author: NWS Internet Services Team
Disclaimer
Information Quality
Credits
Glossary
Privacy Policy
Freedom of Information Act (FOIA)
About Us
Career Opportunities